createdAt,value
2023-01-19T00:01:41.670Z,93.04
2023-01-19T00:05:44.449Z,92.45
2023-01-19T00:09:46.518Z,93.02
2023-01-19T00:13:51.812Z,92.65
2023-01-19T00:17:53.836Z,92.23
2023-01-19T00:21:56.079Z,92.84
2023-01-19T00:25:58.157Z,92.17
2023-01-19T00:30:00.223Z,92.47
2023-01-19T00:34:03.179Z,93.88
2023-01-19T00:38:05.235Z,94.34
2023-01-19T00:42:27.384Z,93.96
2023-01-19T00:46:29.378Z,93.60
2023-01-19T00:50:32.468Z,93.93
2023-01-19T00:54:34.505Z,93.11
2023-01-19T00:58:36.520Z,93.19
2023-01-19T01:02:40.103Z,93.21
2023-01-19T01:06:42.226Z,93.71
2023-01-19T01:10:44.243Z,93.92
2023-01-19T01:14:46.288Z,95.12
2023-01-19T01:18:48.271Z,95.42
2023-01-19T01:22:52.315Z,95.69
2023-01-19T01:26:54.361Z,96.16
2023-01-19T01:30:57.065Z,96.43
2023-01-19T01:34:59.339Z,96.88
2023-01-19T01:39:01.413Z,96.44
2023-01-19T01:43:03.610Z,97.00
2023-01-19T01:47:05.670Z,97.48
2023-01-19T01:51:24.894Z,97.46
2023-01-19T01:55:29.207Z,97.40
2023-01-19T01:59:39.036Z,97.83
2023-01-19T02:03:41.396Z,97.96
2023-01-19T02:08:12.115Z,98.06
2023-01-19T02:12:33.311Z,98.10
2023-01-19T02:16:37.486Z,97.93
2023-01-19T02:20:42.795Z,99.19
2023-01-19T02:24:45.000Z,99.72
2023-01-19T02:28:53.296Z,100.00
2023-01-19T02:32:55.421Z,100.00
2023-01-19T02:37:03.349Z,100.00
2023-01-19T02:41:07.623Z,100.00
2023-01-19T02:45:12.648Z,100.00
2023-01-19T02:49:14.761Z,100.00
2023-01-19T02:53:57.775Z,100.00
2023-01-19T02:58:04.340Z,100.00
2023-01-19T03:02:28.815Z,100.00
2023-01-19T03:06:57.138Z,100.00
2023-01-19T03:11:03.750Z,100.00
2023-01-19T03:15:17.479Z,100.00
2023-01-19T03:19:29.628Z,100.00
2023-01-19T03:23:35.020Z,100.00
2023-01-19T03:27:41.167Z,100.00
2023-01-19T03:31:46.029Z,100.00
2023-01-19T03:35:53.027Z,100.00
2023-01-19T03:39:55.859Z,100.00
2023-01-19T03:43:59.003Z,100.00
2023-01-19T03:48:01.487Z,100.00
2023-01-19T03:52:04.443Z,100.00
2023-01-19T03:56:11.777Z,100.00
2023-01-19T04:00:14.475Z,100.00
2023-01-19T04:04:16.803Z,100.00
2023-01-19T04:08:19.287Z,99.63
2023-01-19T04:12:21.309Z,97.86
2023-01-19T04:16:23.534Z,97.10
2023-01-19T04:20:27.240Z,97.20
2023-01-19T04:24:29.269Z,97.50
2023-01-19T04:28:32.426Z,97.40
2023-01-19T04:32:34.469Z,97.05
2023-01-19T04:36:36.529Z,97.06
2023-01-19T04:40:38.776Z,97.78
2023-01-19T04:44:40.802Z,97.86
2023-01-19T04:48:42.850Z,98.18
2023-01-19T04:52:46.027Z,97.97
2023-01-19T04:56:48.879Z,97.94
2023-01-19T05:00:52.196Z,98.24
2023-01-19T05:04:54.407Z,98.83
2023-01-19T05:08:56.413Z,98.78
2023-01-19T05:12:58.809Z,99.52
2023-01-19T05:17:03.137Z,100.00
2023-01-19T05:21:06.165Z,100.00
2023-01-19T05:25:08.785Z,100.00
2023-01-19T05:29:10.823Z,100.00
2023-01-19T05:33:12.855Z,100.00
2023-01-19T05:37:15.175Z,100.00
2023-01-19T05:41:17.755Z,100.00
2023-01-19T05:45:19.793Z,100.00
2023-01-19T05:49:21.853Z,100.00
2023-01-19T05:53:23.902Z,100.00
2023-01-19T05:57:25.897Z,100.00
2023-01-19T06:01:28.352Z,100.00
2023-01-19T06:05:30.449Z,100.00
2023-01-19T06:09:33.313Z,100.00
2023-01-19T06:13:35.454Z,100.00
2023-01-19T06:17:37.554Z,100.00
2023-01-19T06:21:39.618Z,100.00
2023-01-19T06:25:41.619Z,100.00
2023-01-19T06:29:43.633Z,100.00
2023-01-19T06:33:45.729Z,100.00
2023-01-19T06:37:47.897Z,100.00
2023-01-19T06:41:50.217Z,100.00
2023-01-19T06:45:52.748Z,100.00
2023-01-19T06:49:54.850Z,100.00
2023-01-19T06:53:57.295Z,100.00
2023-01-19T06:57:59.661Z,100.00
2023-01-19T07:02:26.113Z,100.00
2023-01-19T07:06:24.076Z,100.00
2023-01-19T07:10:26.080Z,100.00
2023-01-19T07:14:49.435Z,100.00
2023-01-19T07:18:51.589Z,100.00
2023-01-19T07:22:56.996Z,100.00
2023-01-19T07:26:59.713Z,100.00
2023-01-19T07:31:01.855Z,100.00
2023-01-19T07:35:04.692Z,100.00
2023-01-19T07:39:06.726Z,100.00
2023-01-19T07:43:08.885Z,97.53
2023-01-19T07:47:12.597Z,95.57
2023-01-19T07:51:18.681Z,94.28
2023-01-19T07:55:21.647Z,92.73
2023-01-19T07:59:23.704Z,91.25
2023-01-19T08:03:25.746Z,91.00
2023-01-19T08:07:27.776Z,90.02
2023-01-19T08:11:29.812Z,88.92
2023-01-19T08:15:31.889Z,88.51
2023-01-19T08:19:34.079Z,87.20
2023-01-19T08:23:36.135Z,87.02
2023-01-19T08:27:38.263Z,86.56
2023-01-19T08:31:40.328Z,86.21
2023-01-19T08:35:47.205Z,85.60
2023-01-19T08:39:49.241Z,84.35
2023-01-19T08:43:51.347Z,83.63
2023-01-19T08:47:55.982Z,83.24
2023-01-19T08:51:57.991Z,82.45
2023-01-19T08:56:01.210Z,81.58
2023-01-19T09:00:04.435Z,79.33
2023-01-19T09:04:06.541Z,78.16
2023-01-19T09:08:13.910Z,77.40
2023-01-19T09:12:16.518Z,76.86
2023-01-19T09:16:18.518Z,75.16
2023-01-19T09:20:20.670Z,74.72
2023-01-19T09:24:22.708Z,73.77
2023-01-19T09:28:25.354Z,74.42
2023-01-19T09:32:27.378Z,74.00
2023-01-19T09:36:30.081Z,74.40
2023-01-19T09:40:32.163Z,74.28
2023-01-19T09:44:35.508Z,74.42
2023-01-19T09:48:58.609Z,74.75
2023-01-19T09:53:13.930Z,75.55
2023-01-19T09:57:16.150Z,77.10
2023-01-19T10:01:24.449Z,77.89
2023-01-19T10:05:45.145Z,78.72
2023-01-19T10:10:19.790Z,79.15
2023-01-19T10:14:48.392Z,79.24
2023-01-19T10:18:54.765Z,79.07
2023-01-19T10:22:59.072Z,78.64
2023-01-19T10:27:01.842Z,79.50
2023-01-19T10:31:06.260Z,79.83
2023-01-19T10:35:24.645Z,80.01
2023-01-19T10:39:26.873Z,79.20
2023-01-19T10:43:36.463Z,79.00
2023-01-19T10:47:40.037Z,78.79
2023-01-19T10:51:48.892Z,79.46
2023-01-19T10:56:11.089Z,80.46
2023-01-19T11:00:30.999Z,80.13
2023-01-19T11:04:33.176Z,78.97
2023-01-19T11:08:35.166Z,77.83
2023-01-19T11:12:42.648Z,76.88
2023-01-19T11:16:56.768Z,76.87
2023-01-19T11:21:06.401Z,76.45
2023-01-19T11:25:25.886Z,75.87
2023-01-19T11:29:27.929Z,76.89
2023-01-19T11:33:36.388Z,77.09
2023-01-19T11:37:39.564Z,76.84
2023-01-19T11:41:41.868Z,77.49
2023-01-19T11:45:45.712Z,77.07
2023-01-19T11:50:04.608Z,77.61
2023-01-19T11:54:19.742Z,77.73
2023-01-19T11:58:22.965Z,77.12
2023-01-19T12:02:46.803Z,78.56
2023-01-19T12:06:55.205Z,79.71
2023-01-19T12:11:00.166Z,80.00
2023-01-19T12:15:15.092Z,79.93
2023-01-19T12:19:21.234Z,79.88
2023-01-19T12:23:45.367Z,81.05
2023-01-19T12:27:49.405Z,81.68
2023-01-19T12:32:14.651Z,81.55
2023-01-19T12:36:16.619Z,82.79
2023-01-19T12:40:28.985Z,83.42
2023-01-19T12:44:34.155Z,83.56
2023-01-19T12:48:41.947Z,83.32
2023-01-19T12:52:57.220Z,84.29
2023-01-19T12:57:06.053Z,84.24
2023-01-19T13:01:21.178Z,84.13
2023-01-19T13:05:33.261Z,84.69
2023-01-19T13:09:37.913Z,84.00
2023-01-19T13:14:06.234Z,84.18
2023-01-19T13:18:09.324Z,85.13
2023-01-19T13:23:12.954Z,85.31
2023-01-19T13:27:15.254Z,85.42
2023-01-19T13:31:18.730Z,85.07
2023-01-19T13:35:22.313Z,85.36
2023-01-19T13:39:27.743Z,83.79
2023-01-19T13:43:36.516Z,82.42
2023-01-19T13:47:45.205Z,81.70
2023-01-19T13:52:14.191Z,81.70
2023-01-19T13:56:21.982Z,81.66
2023-01-19T14:00:29.204Z,81.77
2023-01-19T14:04:32.300Z,82.76
2023-01-19T14:08:34.285Z,82.90
2023-01-19T14:12:43.523Z,82.71
2023-01-19T14:16:50.523Z,83.00
2023-01-19T14:20:53.602Z,83.36
2023-01-19T14:24:55.577Z,83.18
2023-01-19T14:28:57.719Z,84.13
2023-01-19T14:32:59.705Z,84.58
2023-01-19T14:37:04.045Z,83.99
2023-01-19T14:41:06.305Z,84.38
2023-01-19T14:45:17.488Z,84.88
2023-01-19T14:49:26.626Z,85.37
2023-01-19T14:53:30.038Z,85.14
2023-01-19T14:57:35.384Z,84.76
2023-01-19T15:01:37.665Z,85.37
2023-01-19T15:05:42.810Z,86.26
2023-01-19T15:09:47.023Z,84.77
2023-01-19T15:13:49.933Z,84.43
2023-01-19T15:17:54.170Z,84.54
2023-01-19T15:21:58.200Z,84.48
2023-01-19T15:26:02.103Z,84.42
2023-01-19T15:30:13.012Z,83.85
2023-01-19T15:34:15.139Z,84.18
2023-01-19T15:38:17.319Z,83.90
2023-01-19T15:42:19.318Z,84.47
2023-01-19T15:46:22.532Z,84.21
2023-01-19T15:50:25.905Z,84.28
2023-01-19T15:54:27.922Z,84.28
2023-01-19T15:58:29.908Z,84.90
2023-01-19T16:02:35.341Z,84.41
2023-01-19T16:06:37.818Z,84.40
2023-01-19T16:10:41.746Z,84.35
2023-01-19T16:14:43.780Z,83.81
2023-01-19T16:18:46.180Z,83.73
2023-01-19T16:22:48.233Z,83.29
2023-01-19T16:26:50.284Z,83.50
2023-01-19T16:30:52.686Z,83.43
2023-01-19T16:34:54.879Z,84.82
2023-01-19T16:39:06.147Z,84.82
2023-01-19T16:43:08.194Z,85.19
2023-01-19T16:47:10.260Z,84.53
2023-01-19T16:51:12.258Z,85.53
2023-01-19T16:55:14.308Z,85.62
2023-01-19T16:59:17.422Z,87.05
2023-01-19T17:03:19.467Z,87.01
2023-01-19T17:07:21.484Z,87.89
2023-01-19T17:11:29.349Z,87.95
2023-01-19T17:15:31.528Z,87.98
2023-01-19T17:19:33.547Z,87.76
2023-01-19T17:23:37.431Z,88.32
2023-01-19T17:27:39.440Z,87.79
2023-01-19T17:31:41.542Z,88.31
2023-01-19T17:35:43.663Z,88.04
2023-01-19T17:39:46.629Z,88.42
2023-01-19T17:43:50.278Z,87.89
2023-01-19T17:47:52.276Z,88.47
2023-01-19T17:51:55.662Z,87.98
2023-01-19T17:56:05.081Z,88.97
2023-01-19T18:00:08.160Z,88.88
2023-01-19T18:04:16.168Z,88.85
2023-01-19T18:08:18.171Z,88.84
2023-01-19T18:12:20.315Z,88.75
2023-01-19T18:16:25.427Z,88.80
2023-01-19T18:20:27.467Z,88.82
2023-01-19T18:24:29.552Z,89.07
2023-01-19T18:28:32.057Z,88.75
2023-01-19T18:32:58.372Z,88.69
2023-01-19T18:37:00.459Z,88.92
2023-01-19T18:41:05.029Z,89.61
2023-01-19T18:45:07.602Z,89.62
2023-01-19T18:49:10.067Z,88.67
2023-01-19T18:53:12.152Z,88.09
2023-01-19T18:57:14.492Z,87.66
2023-01-19T19:01:18.819Z,87.76
2023-01-19T19:05:21.329Z,88.00
2023-01-19T19:09:23.425Z,87.42
2023-01-19T19:13:25.483Z,87.05
2023-01-19T19:17:27.467Z,87.10
2023-01-19T19:21:29.530Z,87.20
2023-01-19T19:25:32.601Z,87.41
2023-01-19T19:29:35.068Z,87.29
2023-01-19T19:33:38.145Z,87.34
2023-01-19T19:37:40.094Z,87.62
2023-01-19T19:41:42.517Z,86.91
2023-01-19T19:45:44.789Z,86.44
2023-01-19T19:49:46.772Z,86.38
2023-01-19T19:53:51.474Z,87.04
2023-01-19T19:57:54.762Z,87.32
2023-01-19T20:01:56.883Z,87.00
2023-01-19T20:06:07.402Z,87.55
2023-01-19T20:10:10.280Z,87.65
2023-01-19T20:14:14.135Z,86.92
2023-01-19T20:18:16.292Z,87.26
2023-01-19T20:22:18.357Z,86.93
2023-01-19T20:26:26.669Z,87.09
2023-01-19T20:30:28.855Z,87.18
2023-01-19T20:36:32.579Z,87.94
2023-01-19T20:40:34.756Z,87.23
2023-01-19T20:44:37.312Z,87.60
2023-01-19T20:48:39.619Z,87.81
2023-01-19T20:52:41.600Z,88.92
2023-01-19T20:56:43.808Z,89.13
2023-01-19T21:00:45.922Z,89.34
2023-01-19T21:04:48.056Z,88.70
2023-01-19T21:08:50.164Z,89.37
2023-01-19T21:12:52.262Z,90.08
2023-01-19T21:16:58.211Z,89.73
2023-01-19T21:21:00.278Z,89.03
2023-01-19T21:25:02.291Z,88.73
2023-01-19T21:29:04.542Z,89.10
2023-01-19T21:33:07.712Z,90.24
2023-01-19T21:37:09.908Z,91.07
2023-01-19T21:41:12.662Z,91.14
2023-01-19T21:45:15.095Z,91.59
2023-01-19T21:49:19.678Z,91.33
2023-01-19T21:53:21.655Z,90.71
2023-01-19T21:57:23.711Z,91.22
2023-01-19T22:01:25.878Z,90.43
2023-01-19T22:05:28.011Z,89.11
2023-01-19T22:09:30.089Z,89.22
2023-01-19T22:13:33.339Z,89.03
2023-01-19T22:17:36.096Z,90.04
2023-01-19T22:21:38.112Z,89.75
2023-01-19T22:25:40.118Z,90.24
2023-01-19T22:29:42.427Z,89.45
2023-01-19T22:33:44.915Z,88.85
2023-01-19T22:37:46.958Z,88.36
2023-01-19T22:41:48.998Z,88.19
2023-01-19T22:45:51.014Z,88.27
2023-01-19T22:49:53.053Z,88.17
2023-01-19T22:53:55.280Z,87.72
2023-01-19T22:57:57.308Z,88.23
2023-01-19T23:01:59.405Z,88.08
2023-01-19T23:06:10.668Z,87.83
2023-01-19T23:10:12.834Z,87.74
2023-01-19T23:14:17.973Z,86.71
2023-01-19T23:18:19.996Z,86.66
2023-01-19T23:22:22.033Z,86.66
2023-01-19T23:26:25.042Z,86.22
2023-01-19T23:30:27.107Z,85.61
2023-01-19T23:34:29.125Z,85.25
2023-01-19T23:38:31.164Z,85.28
2023-01-19T23:42:33.191Z,85.25
2023-01-19T23:46:35.523Z,85.43
2023-01-19T23:50:40.661Z,85.83
2023-01-19T23:54:42.701Z,86.25
2023-01-19T23:58:46.443Z,85.93
